KSNY/SNY METAR and TAF weather

Enter ICAO airport designator
Station Type Date Time Source
KSNY METAR 2021/08/05 03:53 UTC NOAA

KSNY 050353Z AUTO 17005KT 10SM CLR 18/15 A3017 RMK AO2 SLP178 T01780150


Station Type Date Time Source
KSNY Decoded METAR 2021/08/05 03:53 UTC NOAA

SIDNEY MUNICIPAL AIRPORT, NE, United States (KSNY) 41-06N 102-59W 1307M
Aug 04, 2021 - 11:53 PM EDT / 2021.08.05 0353 UTC
Wind: from the S (170 degrees) at 6 MPH (5 KT):0
Visibility: 10 mile(s):0
Sky conditions: clear
Temperature: 64.0 F (17.8 C)
Dew Point: 59.0 F (15.0 C)
Relative Humidity: 83%
Pressure (altimeter): 30.17 in. Hg (1021 hPa)
ob: KSNY 050353Z AUTO 17005KT 10SM CLR 18/15 A3017 RMK AO2 SLP178 T01780150
cycle: 4

Station Type Date Time Source
KSNY TAF 2021/08/04 18:48 UTC NOAA

TAF KSNY 041740Z 0418/0518 31012G22KT P6SM BKN080
FM042100 VRB05KT P6SM SCT060

Example: see airport list